< < Back
Terminal Aerodrome Forecast


Current Version              Previous Versions:   1  2  3  4  5  6  7  8  9  

Terminal Aerodrome Forecast

414
FTUS42 KGSP 292331
TAFHKY
TAF
KHKY 292331Z 3000/3024 VRB03KT P6SM VCSH FEW045 SCT100
     FM300200 00000KT P6SM SCT060
     FM300600 00000KT 4SM BR FEW060
     FM301300 00000KT P6SM BKN250
     FM301600 19003KT P6SM BKN035
     FM301900 18006KT P6SM SCT045=

Latest METAR

609
SAUS70 KWBC 300600 RRC
MTRHKY
METAR KHKY 300553Z AUTO 00000KT 10SM CLR 19/18 A3019 RMK AO2 SLP201
60000 T01940178 10267 20183 58007


USA.gov is the U.S. government's official web portal to all federal, state and local government web resources and services.